createdAt,value
2022-11-07T00:00:16.439Z,99.90
2022-11-07T00:02:45.130Z,99.90
2022-11-07T00:05:13.621Z,99.90
2022-11-07T00:07:49.725Z,99.90
2022-11-07T00:10:18.208Z,99.90
2022-11-07T00:12:49.665Z,99.90
2022-11-07T00:15:17.769Z,99.90
2022-11-07T00:17:48.910Z,99.90
2022-11-07T00:20:17.864Z,99.90
2022-11-07T00:22:55.416Z,99.90
2022-11-07T00:25:29.718Z,99.90
2022-11-07T00:27:59.323Z,99.90
2022-11-07T00:30:35.327Z,99.90
2022-11-07T00:33:03.310Z,99.90
2022-11-07T00:35:34.151Z,99.90
2022-11-07T00:38:02.782Z,99.90
2022-11-07T00:40:33.492Z,99.90
2022-11-07T00:43:02.005Z,99.90
2022-11-07T00:45:30.536Z,99.90
2022-11-07T00:47:59.825Z,99.90
2022-11-07T00:50:28.923Z,99.90
2022-11-07T00:53:02.769Z,99.90
2022-11-07T00:55:33.564Z,99.90
2022-11-07T00:58:09.865Z,99.90
2022-11-07T01:00:42.217Z,99.90
2022-11-07T01:03:32.697Z,99.90
2022-11-07T01:06:05.994Z,99.90
2022-11-07T01:08:37.787Z,99.90
2022-11-07T01:11:08.119Z,99.90
2022-11-07T01:13:37.228Z,99.90
2022-11-07T01:16:08.838Z,99.90
2022-11-07T01:18:47.136Z,99.90
2022-11-07T01:21:18.031Z,99.90
2022-11-07T01:23:50.797Z,99.90
2022-11-07T01:26:19.484Z,99.90
2022-11-07T01:28:52.386Z,99.90
2022-11-07T01:31:27.579Z,99.90
2022-11-07T01:33:56.579Z,99.90
2022-11-07T01:36:25.150Z,99.90
2022-11-07T01:38:58.167Z,99.90
2022-11-07T01:41:33.202Z,99.90
2022-11-07T01:44:26.774Z,99.90
2022-11-07T01:46:58.020Z,99.90
2022-11-07T01:49:41.548Z,99.90
2022-11-07T01:52:30.206Z,99.90
2022-11-07T01:55:22.936Z,99.90
2022-11-07T01:58:16.020Z,99.90
2022-11-07T02:00:49.360Z,99.90
2022-11-07T02:03:21.678Z,99.90
2022-11-07T02:06:28.479Z,99.90
2022-11-07T02:09:03.976Z,99.90
2022-11-07T02:11:36.531Z,99.90
2022-11-07T02:14:04.499Z,99.90
2022-11-07T02:16:35.251Z,99.90
2022-11-07T02:19:09.127Z,99.90
2022-11-07T02:21:59.821Z,99.90
2022-11-07T02:24:40.097Z,99.90
2022-11-07T02:27:18.002Z,99.90
2022-11-07T02:29:50.952Z,99.90
2022-11-07T02:32:22.874Z,99.90
2022-11-07T02:35:08.373Z,99.90
2022-11-07T02:37:40.363Z,99.90
2022-11-07T02:40:14.284Z,99.90
2022-11-07T02:42:45.190Z,99.90
2022-11-07T02:45:30.062Z,99.90
2022-11-07T02:48:09.104Z,99.90
2022-11-07T02:50:37.175Z,99.90
2022-11-07T02:53:09.436Z,99.90
2022-11-07T02:55:40.161Z,99.90
2022-11-07T02:58:22.000Z,99.90
2022-11-07T03:00:49.845Z,99.90
2022-11-07T03:03:21.318Z,99.90
2022-11-07T03:05:51.958Z,99.90
2022-11-07T03:08:29.600Z,99.90
2022-11-07T03:10:58.191Z,99.90
2022-11-07T03:13:27.631Z,99.90
2022-11-07T03:16:00.122Z,99.90
2022-11-07T03:18:32.910Z,99.90
2022-11-07T03:21:00.844Z,99.90
2022-11-07T03:23:28.665Z,99.90
2022-11-07T03:26:07.089Z,99.90
2022-11-07T03:28:42.693Z,99.90
2022-11-07T03:31:09.764Z,99.90
2022-11-07T03:33:37.500Z,99.90
2022-11-07T03:36:04.865Z,99.90
2022-11-07T03:38:31.826Z,99.90
2022-11-07T03:40:58.800Z,99.90
2022-11-07T03:43:25.846Z,99.90
2022-11-07T03:45:52.859Z,99.90
2022-11-07T03:48:19.815Z,99.90
2022-11-07T03:50:46.798Z,99.90
2022-11-07T03:53:14.115Z,99.90
2022-11-07T03:55:43.153Z,99.90
2022-11-07T03:58:10.120Z,99.90
2022-11-07T04:00:37.226Z,99.90
2022-11-07T04:03:04.578Z,99.90
2022-11-07T04:05:31.705Z,99.90
2022-11-07T04:07:58.671Z,99.90
2022-11-07T04:10:25.712Z,99.90
2022-11-07T04:13:11.309Z,99.90
2022-11-07T04:15:59.127Z,99.90
2022-11-07T04:18:26.080Z,99.90
2022-11-07T04:20:53.050Z,99.90
2022-11-07T04:23:20.048Z,99.90
2022-11-07T04:26:05.388Z,99.90
2022-11-07T04:28:32.391Z,99.90
2022-11-07T04:30:59.414Z,99.90
2022-11-07T04:33:26.392Z,99.90
2022-11-07T04:35:53.380Z,99.90
2022-11-07T04:38:20.363Z,99.90
2022-11-07T04:40:54.471Z,99.90
2022-11-07T04:43:22.387Z,99.90
2022-11-07T04:45:49.384Z,99.90
2022-11-07T04:48:16.681Z,99.90
2022-11-07T04:50:44.810Z,99.90
2022-11-07T04:53:17.266Z,99.90
2022-11-07T04:55:44.605Z,99.90
2022-11-07T04:58:11.618Z,99.90
2022-11-07T05:00:38.662Z,99.90
2022-11-07T05:03:05.680Z,99.90
2022-11-07T05:05:32.768Z,99.90
2022-11-07T05:07:59.748Z,99.90
2022-11-07T05:10:28.735Z,99.90
2022-11-07T05:12:56.655Z,99.90
2022-11-07T05:15:24.154Z,99.90
2022-11-07T05:17:51.165Z,99.90
2022-11-07T05:20:38.283Z,99.90
2022-11-07T05:23:16.164Z,99.90
2022-11-07T05:25:46.505Z,99.90
2022-11-07T05:28:16.290Z,99.90
2022-11-07T05:30:45.246Z,99.90
2022-11-07T05:33:14.986Z,99.90
2022-11-07T05:35:42.902Z,99.90
2022-11-07T05:38:10.607Z,99.90
2022-11-07T05:40:39.582Z,99.90
2022-11-07T05:43:09.164Z,99.90
2022-11-07T05:45:41.167Z,99.90
2022-11-07T05:48:13.420Z,99.90
2022-11-07T05:50:41.161Z,99.90
2022-11-07T05:53:08.625Z,99.90
2022-11-07T05:55:35.815Z,99.90
2022-11-07T05:58:09.049Z,99.90
2022-11-07T06:00:36.060Z,99.90
2022-11-07T06:03:03.145Z,99.90
2022-11-07T06:05:30.436Z,99.90
2022-11-07T06:07:57.581Z,99.90
2022-11-07T06:10:25.321Z,99.90
2022-11-07T06:13:02.562Z,99.90
2022-11-07T06:15:33.496Z,99.90
2022-11-07T06:18:01.714Z,99.90
2022-11-07T06:20:29.579Z,99.90
2022-11-07T06:23:00.465Z,99.90
2022-11-07T06:25:28.375Z,99.90
2022-11-07T06:28:04.180Z,99.90
2022-11-07T06:30:31.927Z,99.90
2022-11-07T06:33:03.719Z,99.90
2022-11-07T06:35:31.797Z,99.90
2022-11-07T06:38:07.491Z,99.90
2022-11-07T06:40:34.810Z,99.90
2022-11-07T06:43:07.872Z,99.90
2022-11-07T06:45:35.173Z,99.90
2022-11-07T06:48:02.237Z,99.90
2022-11-07T06:50:29.229Z,99.90
2022-11-07T06:52:56.215Z,99.90
2022-11-07T06:55:23.225Z,99.90
2022-11-07T06:57:50.222Z,99.90
2022-11-07T07:00:17.583Z,99.90
2022-11-07T07:02:57.817Z,99.90
2022-11-07T07:05:25.252Z,99.90
2022-11-07T07:07:52.243Z,99.90
2022-11-07T07:10:19.226Z,99.90
2022-11-07T07:12:46.194Z,99.90
2022-11-07T07:15:13.161Z,99.90
2022-11-07T07:17:40.210Z,99.90
2022-11-07T07:20:07.813Z,99.90
2022-11-07T07:22:34.795Z,99.90
2022-11-07T07:25:01.797Z,99.90
2022-11-07T07:27:28.871Z,99.90
2022-11-07T07:29:55.839Z,99.90
2022-11-07T07:32:25.268Z,99.90
2022-11-07T07:34:52.519Z,99.90
2022-11-07T07:37:19.500Z,99.90
2022-11-07T07:39:46.504Z,99.90
2022-11-07T07:42:13.472Z,99.90
2022-11-07T07:44:44.640Z,99.90
2022-11-07T07:47:11.839Z,99.90
2022-11-07T07:49:38.940Z,99.90
2022-11-07T07:52:06.365Z,99.90
2022-11-07T07:54:33.346Z,99.90
2022-11-07T07:57:01.602Z,99.90
2022-11-07T07:59:28.612Z,99.90
2022-11-07T08:01:57.373Z,99.90
2022-11-07T08:04:24.779Z,99.90
2022-11-07T08:06:52.002Z,99.90
2022-11-07T08:09:18.938Z,99.90
2022-11-07T08:11:47.027Z,99.90
2022-11-07T08:14:14.362Z,99.90
2022-11-07T08:16:41.319Z,99.90
2022-11-07T08:19:08.350Z,99.90
2022-11-07T08:21:35.362Z,99.90
2022-11-07T08:24:03.585Z,99.90
2022-11-07T08:26:31.412Z,98.60
2022-11-07T08:28:58.555Z,98.80
2022-11-07T08:31:25.627Z,97.90
2022-11-07T08:33:52.706Z,97.40
2022-11-07T08:36:19.800Z,96.90
2022-11-07T08:38:46.770Z,96.60
2022-11-07T08:41:17.184Z,94.60
2022-11-07T08:43:47.613Z,93.60
2022-11-07T08:46:15.095Z,93.20
2022-11-07T08:48:42.811Z,92.00
2022-11-07T08:51:10.042Z,91.30
2022-11-07T08:53:37.097Z,90.90
2022-11-07T08:56:06.414Z,89.20
2022-11-07T08:58:34.192Z,87.40
2022-11-07T09:01:01.387Z,86.40
2022-11-07T09:03:44.685Z,84.60
2022-11-07T09:06:12.454Z,78.60
2022-11-07T09:08:40.839Z,79.70
2022-11-07T09:11:08.138Z,80.70
2022-11-07T09:13:35.525Z,78.70
2022-11-07T09:16:04.392Z,76.40
2022-11-07T09:18:33.083Z,75.30
2022-11-07T09:21:00.556Z,72.50
2022-11-07T09:23:28.040Z,75.40
2022-11-07T09:25:55.294Z,73.80
2022-11-07T09:28:22.510Z,70.80
2022-11-07T09:30:57.202Z,73.70
2022-11-07T09:33:24.708Z,71.50
2022-11-07T09:35:51.889Z,70.90
2022-11-07T09:38:19.526Z,69.70
2022-11-07T09:41:16.963Z,68.90
2022-11-07T09:44:16.340Z,71.00
2022-11-07T09:46:51.941Z,72.60
2022-11-07T09:49:47.042Z,70.50
2022-11-07T09:52:37.671Z,68.60
2022-11-07T09:55:23.474Z,69.60
2022-11-07T09:57:54.534Z,69.90
2022-11-07T10:00:23.127Z,68.90
2022-11-07T10:02:59.215Z,70.90
2022-11-07T10:05:45.124Z,70.90
2022-11-07T10:08:17.364Z,71.40
2022-11-07T10:10:51.238Z,71.20
2022-11-07T10:13:38.313Z,69.80
2022-11-07T10:16:15.349Z,67.60
2022-11-07T10:19:20.981Z,71.50
2022-11-07T10:22:07.089Z,70.60
2022-11-07T10:24:55.332Z,69.10
2022-11-07T10:27:25.433Z,68.70
2022-11-07T10:29:54.693Z,68.70
2022-11-07T10:32:24.397Z,67.50
2022-11-07T10:35:02.203Z,68.00
2022-11-07T10:37:29.237Z,69.10
2022-11-07T10:39:56.217Z,68.00
2022-11-07T10:42:27.352Z,69.80
2022-11-07T10:44:56.479Z,70.10
2022-11-07T10:47:25.718Z,67.80
2022-11-07T10:50:01.406Z,69.50
2022-11-07T10:52:29.820Z,71.50
2022-11-07T10:55:16.905Z,70.90
2022-11-07T10:57:56.435Z,70.90
2022-11-07T11:00:27.863Z,73.20
2022-11-07T11:02:56.397Z,72.50
2022-11-07T11:05:44.306Z,73.20
2022-11-07T11:08:19.291Z,73.20
2022-11-07T11:10:47.417Z,73.10
2022-11-07T11:13:27.194Z,73.20
2022-11-07T11:15:59.001Z,70.90
2022-11-07T11:18:28.348Z,72.20
2022-11-07T11:20:58.520Z,73.10
2022-11-07T11:23:29.146Z,74.80
2022-11-07T11:26:16.762Z,77.40
2022-11-07T11:28:48.548Z,79.00
2022-11-07T11:31:44.100Z,78.60
2022-11-07T11:34:14.832Z,82.00
2022-11-07T11:37:04.479Z,79.30
2022-11-07T11:39:47.582Z,80.10
2022-11-07T11:42:48.308Z,81.40
2022-11-07T11:45:24.676Z,80.50
2022-11-07T11:48:14.788Z,79.80
2022-11-07T11:50:52.792Z,79.50
2022-11-07T11:53:22.408Z,80.00
2022-11-07T11:56:28.141Z,80.50
2022-11-07T11:59:07.170Z,81.80
2022-11-07T12:01:37.029Z,82.30
2022-11-07T12:04:39.259Z,83.00
2022-11-07T12:07:12.277Z,83.30
2022-11-07T12:10:01.036Z,82.20
2022-11-07T12:13:01.491Z,82.60
2022-11-07T12:15:37.107Z,83.70
2022-11-07T12:18:10.074Z,82.60
2022-11-07T12:20:52.390Z,83.60
2022-11-07T12:23:56.150Z,83.40
2022-11-07T12:26:38.937Z,84.20
2022-11-07T12:29:17.263Z,84.20
2022-11-07T12:31:50.195Z,83.60
2022-11-07T12:34:26.278Z,83.50
2022-11-07T12:37:05.772Z,84.00
2022-11-07T12:39:38.854Z,82.70
2022-11-07T12:42:31.990Z,84.00
2022-11-07T12:45:17.889Z,83.20
2022-11-07T12:47:50.746Z,84.20
2022-11-07T12:50:43.714Z,84.70
2022-11-07T12:53:48.831Z,85.70
2022-11-07T12:56:21.957Z,86.10
2022-11-07T12:58:50.000Z,85.20
2022-11-07T13:01:22.247Z,85.10
2022-11-07T13:04:04.421Z,84.80
2022-11-07T13:07:03.665Z,84.10
2022-11-07T13:09:56.655Z,84.50
2022-11-07T13:12:26.444Z,84.60
2022-11-07T13:14:53.915Z,85.70
2022-11-07T13:17:30.946Z,85.60
2022-11-07T13:20:02.106Z,84.50
2022-11-07T13:22:35.728Z,84.50
2022-11-07T13:25:28.772Z,85.40
2022-11-07T13:27:55.774Z,85.10
2022-11-07T13:30:24.006Z,85.30
2022-11-07T13:32:51.895Z,86.00
2022-11-07T13:35:24.681Z,85.90
2022-11-07T13:38:09.409Z,86.40
2022-11-07T13:40:58.613Z,86.60
2022-11-07T13:44:02.815Z,87.60
2022-11-07T13:46:38.776Z,86.50
2022-11-07T13:49:18.642Z,87.10
2022-11-07T13:51:49.468Z,86.30
2022-11-07T13:54:37.156Z,86.10
2022-11-07T13:57:39.687Z,87.30
2022-11-07T14:00:13.780Z,88.10
2022-11-07T14:03:00.027Z,88.10
2022-11-07T14:05:30.223Z,90.30
2022-11-07T14:08:07.419Z,88.70
2022-11-07T14:10:48.584Z,88.50
2022-11-07T14:13:34.711Z,89.80
2022-11-07T14:16:19.928Z,89.60
2022-11-07T14:18:54.762Z,91.40
2022-11-07T14:21:25.731Z,92.00
2022-11-07T14:23:52.890Z,90.80
2022-11-07T14:26:22.354Z,92.10
2022-11-07T14:28:50.432Z,91.70
2022-11-07T14:31:20.616Z,91.20
2022-11-07T14:33:53.728Z,92.40
2022-11-07T14:36:21.703Z,93.20
2022-11-07T14:38:54.935Z,93.50
2022-11-07T14:41:23.441Z,93.50
2022-11-07T14:43:51.899Z,93.50
2022-11-07T14:46:25.146Z,93.80
2022-11-07T14:48:53.476Z,94.40
2022-11-07T14:51:26.447Z,94.50
2022-11-07T14:54:05.446Z,95.30
2022-11-07T14:56:38.453Z,95.50
2022-11-07T14:59:13.006Z,95.40
2022-11-07T15:01:53.074Z,95.50
2022-11-07T15:04:33.903Z,95.80
2022-11-07T15:07:26.732Z,96.10
2022-11-07T15:09:56.636Z,96.40
2022-11-07T15:12:30.179Z,96.80
2022-11-07T15:15:12.206Z,97.20
2022-11-07T15:17:46.060Z,97.90
2022-11-07T15:20:30.961Z,98.20
2022-11-07T15:23:03.223Z,98.60
2022-11-07T15:25:35.084Z,99.10
2022-11-07T15:28:25.727Z,99.70
2022-11-07T15:30:59.163Z,99.90
2022-11-07T15:33:31.059Z,99.90
2022-11-07T15:36:02.299Z,99.90
2022-11-07T15:38:30.044Z,99.90
2022-11-07T15:40:57.197Z,99.90
2022-11-07T15:43:24.227Z,99.90
2022-11-07T15:45:53.397Z,99.90
2022-11-07T15:48:23.893Z,99.90
2022-11-07T15:50:51.157Z,99.90
2022-11-07T15:53:29.118Z,99.90
2022-11-07T15:55:59.167Z,99.90
2022-11-07T15:58:28.489Z,99.90
2022-11-07T16:00:56.673Z,99.90
2022-11-07T16:03:25.534Z,99.90
2022-11-07T16:05:54.997Z,99.90
2022-11-07T16:08:24.946Z,99.90
2022-11-07T16:10:58.828Z,99.90
2022-11-07T16:13:25.858Z,99.90
2022-11-07T16:16:03.449Z,99.90
2022-11-07T16:18:39.510Z,99.90
2022-11-07T16:21:06.607Z,99.90
2022-11-07T16:23:34.005Z,99.90
2022-11-07T16:26:01.243Z,99.90
2022-11-07T16:28:34.008Z,99.90
2022-11-07T16:31:02.292Z,99.90
2022-11-07T16:33:29.737Z,99.90
2022-11-07T16:36:00.328Z,99.90
2022-11-07T16:38:34.087Z,99.90
2022-11-07T16:41:02.462Z,99.90
2022-11-07T16:43:35.093Z,99.90
2022-11-07T16:46:02.696Z,99.90
2022-11-07T16:48:31.192Z,99.90
2022-11-07T16:50:58.374Z,99.90
2022-11-07T16:53:26.099Z,99.90
2022-11-07T16:56:02.234Z,99.90
2022-11-07T16:58:34.806Z,99.90
2022-11-07T17:01:05.743Z,99.90
2022-11-07T17:03:34.346Z,99.90
2022-11-07T17:06:04.224Z,99.90
2022-11-07T17:08:43.488Z,99.90
2022-11-07T17:11:14.872Z,99.90
2022-11-07T17:13:42.085Z,99.90
2022-11-07T17:16:20.285Z,99.90
2022-11-07T17:18:49.300Z,99.90
2022-11-07T17:21:27.302Z,99.90
2022-11-07T17:23:57.418Z,99.90
2022-11-07T17:26:28.474Z,99.90
2022-11-07T17:28:57.739Z,99.90
2022-11-07T17:31:25.718Z,99.90
2022-11-07T17:33:53.842Z,99.90
2022-11-07T17:36:37.058Z,99.90
2022-11-07T17:39:13.743Z,99.90
2022-11-07T17:41:42.206Z,99.90
2022-11-07T17:44:11.941Z,99.90
2022-11-07T17:46:51.659Z,99.90
2022-11-07T17:49:22.295Z,99.90
2022-11-07T17:51:54.363Z,99.90
2022-11-07T17:54:29.102Z,99.90
2022-11-07T17:56:57.287Z,99.90
2022-11-07T17:59:24.937Z,99.90
2022-11-07T18:01:53.615Z,99.90
2022-11-07T18:04:21.538Z,99.90
2022-11-07T18:06:48.956Z,99.90
2022-11-07T18:09:17.195Z,99.90
2022-11-07T18:11:45.326Z,99.90
2022-11-07T18:14:14.211Z,99.90
2022-11-07T18:16:42.214Z,99.90
2022-11-07T18:19:10.067Z,99.90
2022-11-07T18:21:38.261Z,99.90
2022-11-07T18:24:06.577Z,99.90
2022-11-07T18:26:34.951Z,99.90
2022-11-07T18:29:05.386Z,99.90
2022-11-07T18:31:34.393Z,99.90
2022-11-07T18:34:05.150Z,99.90
2022-11-07T18:36:37.421Z,99.90
2022-11-07T18:39:09.397Z,99.90
2022-11-07T18:41:37.173Z,99.90
2022-11-07T18:44:06.138Z,99.90
2022-11-07T18:46:34.142Z,99.90
2022-11-07T18:49:02.570Z,99.90
2022-11-07T18:51:30.928Z,99.90
2022-11-07T18:54:01.220Z,99.90
2022-11-07T18:56:29.274Z,99.90
2022-11-07T18:58:57.272Z,99.90
2022-11-07T19:01:28.804Z,99.90
2022-11-07T19:03:57.715Z,99.90
2022-11-07T19:06:27.322Z,99.90
2022-11-07T19:08:55.405Z,99.90
2022-11-07T19:11:34.632Z,99.90
2022-11-07T19:14:05.361Z,99.90
2022-11-07T19:16:34.073Z,99.90
2022-11-07T19:19:02.127Z,99.90
2022-11-07T19:21:30.214Z,99.90
2022-11-07T19:23:58.452Z,99.90
2022-11-07T19:26:27.169Z,99.90
2022-11-07T19:28:55.098Z,99.90
2022-11-07T19:31:23.130Z,99.90
2022-11-07T19:33:51.576Z,99.90
2022-11-07T19:36:21.878Z,99.90
2022-11-07T19:38:50.982Z,99.90
2022-11-07T19:41:20.570Z,99.90
2022-11-07T19:43:50.429Z,99.90
2022-11-07T19:46:24.039Z,99.90
2022-11-07T19:48:53.235Z,99.90
2022-11-07T19:51:23.253Z,99.90
2022-11-07T19:53:56.147Z,99.90
2022-11-07T19:56:26.325Z,99.90
2022-11-07T19:58:54.957Z,99.90
2022-11-07T20:01:28.856Z,99.90
2022-11-07T20:03:58.141Z,99.90
2022-11-07T20:06:33.011Z,99.90
2022-11-07T20:09:02.049Z,99.90
2022-11-07T20:11:29.739Z,99.90
2022-11-07T20:14:02.736Z,99.90
2022-11-07T20:16:34.366Z,99.90
2022-11-07T20:19:02.743Z,99.90
2022-11-07T20:21:31.304Z,99.90
2022-11-07T20:24:00.242Z,99.90
2022-11-07T20:26:30.755Z,99.90
2022-11-07T20:28:59.619Z,99.90
2022-11-07T20:31:31.031Z,99.90
2022-11-07T20:34:00.134Z,99.90
2022-11-07T20:36:31.377Z,99.90
2022-11-07T20:39:01.926Z,99.90
2022-11-07T20:41:30.084Z,99.90
2022-11-07T20:44:08.693Z,99.90
2022-11-07T20:46:39.025Z,99.90
2022-11-07T20:51:35.795Z,99.90
2022-11-07T20:54:03.565Z,99.90
2022-11-07T20:56:31.540Z,99.90
2022-11-07T20:59:01.265Z,99.90
2022-11-07T21:01:39.288Z,99.90
2022-11-07T21:04:15.301Z,99.90
2022-11-07T21:06:43.664Z,99.90
2022-11-07T21:09:11.991Z,99.90
2022-11-07T21:11:41.649Z,99.90
2022-11-07T21:14:09.922Z,99.90
2022-11-07T21:16:37.373Z,99.90
2022-11-07T21:19:05.416Z,99.90
2022-11-07T21:21:34.059Z,99.90
2022-11-07T21:24:01.421Z,99.90
2022-11-07T21:26:37.170Z,99.90
2022-11-07T21:29:06.590Z,99.90
2022-11-07T21:31:34.963Z,99.90
2022-11-07T21:34:02.176Z,99.90
2022-11-07T21:36:31.347Z,99.90
2022-11-07T21:39:00.664Z,99.90
2022-11-07T21:41:29.775Z,99.90
2022-11-07T21:43:57.919Z,99.90
2022-11-07T21:46:31.596Z,99.90
2022-11-07T21:48:59.149Z,99.90
2022-11-07T21:51:28.984Z,99.90
2022-11-07T21:53:56.847Z,99.90
2022-11-07T21:56:26.127Z,99.90
2022-11-07T21:58:56.529Z,99.90
2022-11-07T22:01:24.129Z,99.90
2022-11-07T22:04:09.743Z,99.90
2022-11-07T22:06:40.121Z,99.90
2022-11-07T22:09:08.688Z,99.90
2022-11-07T22:11:35.845Z,99.90
2022-11-07T22:14:03.185Z,99.90
2022-11-07T22:16:31.531Z,99.90
2022-11-07T22:18:59.986Z,99.90
2022-11-07T22:21:27.162Z,99.90
2022-11-07T22:23:55.474Z,99.90
2022-11-07T22:26:24.361Z,99.90
2022-11-07T22:28:51.657Z,99.90
2022-11-07T22:31:38.882Z,99.90
2022-11-07T22:34:05.926Z,99.90
2022-11-07T22:36:32.898Z,99.90
2022-11-07T22:38:59.976Z,99.90
2022-11-07T22:41:27.982Z,99.90
2022-11-07T22:43:56.547Z,99.90
2022-11-07T22:46:26.182Z,99.90
2022-11-07T22:48:54.083Z,99.90
2022-11-07T22:51:24.068Z,99.90
2022-11-07T22:54:00.496Z,99.90
2022-11-07T22:56:28.162Z,99.90
2022-11-07T22:58:55.657Z,99.90
2022-11-07T23:01:24.449Z,99.90
2022-11-07T23:03:52.220Z,99.90
2022-11-07T23:06:20.295Z,99.90
2022-11-07T23:08:48.033Z,99.90
2022-11-07T23:11:45.212Z,99.90
2022-11-07T23:14:13.652Z,99.90
2022-11-07T23:16:44.342Z,99.90
2022-11-07T23:19:13.567Z,99.90
2022-11-07T23:21:40.606Z,99.90
2022-11-07T23:24:07.841Z,99.90
2022-11-07T23:26:35.376Z,99.90
2022-11-07T23:29:24.140Z,99.90
2022-11-07T23:31:52.175Z,99.90
2022-11-07T23:34:20.780Z,99.90
2022-11-07T23:36:50.687Z,99.90
2022-11-07T23:39:20.560Z,99.90
2022-11-07T23:41:47.673Z,99.90
2022-11-07T23:44:15.851Z,99.90
2022-11-07T23:47:02.096Z,99.90
2022-11-07T23:49:47.630Z,99.90
2022-11-07T23:52:15.026Z,99.90
2022-11-07T23:55:00.690Z,99.90
2022-11-07T23:57:28.002Z,99.90
